Terminal Aerodrome Forecast
Issued by NWS

Home | Current Version | Previous Version | Text Only | Print | Product List | Glossary On
Versions: 1 2 3 4 5 6 7 8 9 10 11 12 13 14
000
FTUS46 KSEW 250536
TAFHQM
TAF
KHQM 250536Z 2506/2606 07006KT P6SM SKC
     FM252000 23010KT P6SM SCT250
     FM260400 22008KT 6SM BR BKN008 OVC200=

USA.gov is the U.S. government's official web portal to all federal, state and local government web resources and services.